Time;durP1;ratioP1;P1;durP2;ratioP2;P2;SDS_P1;SDS_P2;PMS_P1;PMS_P2;Temp;Humidity;BMP_temperature;BMP_pressure;BME280_temperature;BME280_humidity;BME280_pressure;Samples;Min_cycle;Max_cycle;Signal;HPM_P1;HPM_P2
2022/03/18 00:00:44;;;;;;;8.77;3.28;;;3.20;99.90;;;;;;5003135;28;20041;-74
2022/03/18 00:03:09;;;;;;;5.85;1.80;;;3.20;99.90;;;;;;5020630;28;20054;-74
2022/03/18 00:05:36;;;;;;;4.40;2.10;;;3.20;99.90;;;;;;5016618;28;20045;-74
2022/03/18 00:08:02;;;;;;;9.27;3.00;;;3.20;99.90;;;;;;5004232;28;20038;-74
2022/03/18 00:10:29;;;;;;;10.80;2.75;;;3.20;99.90;;;;;;5003084;28;20049;-74
2022/03/18 00:12:54;;;;;;;10.38;2.30;;;3.10;99.90;;;;;;5005384;28;20033;-74
2022/03/18 00:15:23;;;;;;;10.82;2.22;;;3.10;99.90;;;;;;5005849;28;20041;-74
2022/03/18 00:17:52;;;;;;;8.90;2.60;;;3.10;99.90;;;;;;5003822;28;20443;-74
2022/03/18 00:20:19;;;;;;;12.23;3.88;;;3.10;99.90;;;;;;5006559;28;20113;-74
2022/03/18 00:22:45;;;;;;;9.00;3.05;;;3.10;99.90;;;;;;5019025;28;20050;-74
2022/03/18 00:25:13;;;;;;;7.68;3.03;;;3.10;99.90;;;;;;5019549;28;20046;-74
2022/03/18 00:27:42;;;;;;;7.45;2.47;;;3.10;99.90;;;;;;5003203;28;20092;-74
2022/03/18 00:30:11;;;;;;;10.48;3.13;;;3.10;99.90;;;;;;5019613;28;20046;-74
2022/03/18 00:32:38;;;;;;;7.55;2.85;;;3.10;99.90;;;;;;5002493;28;20030;-74
2022/03/18 00:35:05;;;;;;;10.63;2.70;;;3.10;99.90;;;;;;5007244;28;20041;-74
2022/03/18 00:37:30;;;;;;;13.63;3.00;;;3.10;99.90;;;;;;5003505;28;20049;-74
2022/03/18 00:39:56;;;;;;;9.70;2.72;;;3.10;99.90;;;;;;5006827;28;20046;-74
2022/03/18 00:42:21;;;;;;;9.88;2.42;;;3.20;99.90;;;;;;5005972;28;20034;-74
2022/03/18 00:44:48;;;;;;;11.95;2.83;;;3.20;99.90;;;;;;5003744;28;20038;-74
2022/03/18 00:52:42;;;;;;;9.27;2.70;;;3.20;99.90;;;;;;5005143;28;20038;-74
2022/03/18 00:55:08;;;;;;;8.25;2.17;;;3.20;99.90;;;;;;5001093;28;20046;-74
2022/03/18 00:57:34;;;;;;;8.15;2.53;;;3.20;99.90;;;;;;5000893;28;20050;-74
2022/03/18 01:00:00;;;;;;;10.02;2.30;;;3.10;99.90;;;;;;5002375;28;20045;-74
2022/03/18 01:02:26;;;;;;;9.48;2.50;;;3.20;99.90;;;;;;5001458;28;20042;-74
2022/03/18 01:04:52;;;;;;;8.55;2.03;;;3.10;99.90;;;;;;5002463;28;20101;-74
2022/03/18 01:07:18;;;;;;;7.88;1.80;;;3.10;99.90;;;;;;5000889;28;20038;-74
2022/03/18 01:09:43;;;;;;;7.03;2.30;;;3.10;99.90;;;;;;5002748;28;20048;-74
2022/03/18 01:12:09;;;;;;;8.52;2.50;;;3.00;99.90;;;;;;5016952;28;20491;-74
2022/03/18 01:14:35;;;;;;;8.90;2.45;;;3.00;99.90;;;;;;5004778;28;20038;-74
2022/03/18 01:17:01;;;;;;;8.60;1.88;;;3.00;99.90;;;;;;5004738;28;20042;-74
2022/03/18 01:19:27;;;;;;;6.07;2.15;;;3.00;99.90;;;;;;5003108;28;20038;-74
2022/03/18 01:21:53;;;;;;;7.05;2.38;;;3.10;99.90;;;;;;5008738;28;20064;-74
2022/03/18 01:24:18;;;;;;;9.75;2.20;;;3.00;99.90;;;;;;5002768;28;20077;-74
2022/03/18 01:26:44;;;;;;;13.02;3.13;;;2.90;99.90;;;;;;5002853;28;20058;-74
2022/03/18 01:29:10;;;;;;;12.15;3.35;;;2.80;99.90;;;;;;5002129;28;20046;-74
2022/03/18 01:31:36;;;;;;;14.02;4.22;;;2.80;99.90;;;;;;5006795;28;20053;-74
2022/03/18 01:34:02;;;;;;;10.15;3.65;;;2.90;99.90;;;;;;5005434;28;20424;-74
2022/03/18 01:36:28;;;;;;;9.52;3.63;;;3.00;99.90;;;;;;5002024;28;20038;-73
2022/03/18 01:38:54;;;;;;;9.63;3.50;;;2.90;99.90;;;;;;5003381;28;20083;-74
2022/03/18 01:41:20;;;;;;;13.63;3.47;;;2.90;99.90;;;;;;5002362;28;20038;-74
2022/03/18 01:43:47;;;;;;;6.53;2.70;;;2.90;99.90;;;;;;5001969;28;20086;-74
2022/03/18 01:46:14;;;;;;;11.27;4.75;;;2.90;99.90;;;;;;5002269;28;20044;-74
2022/03/18 01:48:41;;;;;;;10.07;3.97;;;3.00;99.90;;;;;;5014760;28;20076;-74
2022/03/18 01:51:07;;;;;;;11.43;4.25;;;3.00;99.90;;;;;;5002274;28;20038;-74
2022/03/18 01:53:38;;;;;;;12.23;3.33;;;3.00;99.90;;;;;;5001608;28;20052;-74
2022/03/18 01:56:05;;;;;;;13.77;3.80;;;3.00;99.90;;;;;;5001332;28;20787;-74
2022/03/18 01:58:31;;;;;;;12.05;3.10;;;3.00;99.90;;;;;;5003053;28;20133;-74
2022/03/18 02:00:57;;;;;;;7.97;3.55;;;3.00;99.90;;;;;;5002586;28;20034;-74
2022/03/18 02:03:23;;;;;;;10.00;4.07;;;3.00;99.90;;;;;;5002483;28;20052;-74
2022/03/18 02:05:48;;;;;;;14.13;4.38;;;3.00;99.90;;;;;;5004005;28;20053;-74
2022/03/18 02:08:17;;;;;;;8.27;3.47;;;2.90;99.90;;;;;;5003435;28;20451;-74
2022/03/18 02:10:43;;;;;;;8.30;3.90;;;2.90;99.90;;;;;;5003185;28;20054;-74
2022/03/18 02:13:09;;;;;;;13.68;4.22;;;2.90;99.90;;;;;;5001467;28;20038;-73
2022/03/18 02:15:35;;;;;;;8.52;3.83;;;2.80;99.90;;;;;;5003385;28;20042;-74
2022/03/18 02:18:01;;;;;;;9.85;3.67;;;2.80;99.90;;;;;;5000307;28;20377;-74
2022/03/18 02:20:26;;;;;;;9.63;3.40;;;2.70;99.90;;;;;;5001693;28;20049;-73
2022/03/18 02:22:52;;;;;;;13.13;4.47;;;2.70;99.90;;;;;;4999155;28;20042;-73
2022/03/18 02:25:18;;;;;;;10.55;4.10;;;2.70;99.90;;;;;;5004513;28;20045;-74
2022/03/18 02:27:58;;;;;;;9.77;3.58;;;2.80;99.90;;;;;;5001612;28;20065;-73
2022/03/18 02:30:25;;;;;;;7.30;3.78;;;2.80;99.90;;;;;;5003097;28;20058;-73
2022/03/18 02:32:51;;;;;;;8.82;3.45;;;2.80;99.90;;;;;;5002530;28;20421;-73
2022/03/18 02:35:17;;;;;;;12.05;4.25;;;2.70;99.90;;;;;;5004234;28;20073;-73
2022/03/18 02:37:42;;;;;;;13.20;4.30;;;2.80;99.90;;;;;;4997315;28;20085;-73
2022/03/18 02:40:20;;;;;;;14.98;4.78;;;2.80;99.90;;;;;;5001442;28;20040;-74
2022/03/18 02:42:46;;;;;;;11.05;3.47;;;2.80;99.90;;;;;;5015279;28;20045;-74
2022/03/18 02:45:11;;;;;;;9.10;3.67;;;2.80;99.90;;;;;;5007301;28;20034;-73
2022/03/18 02:47:38;;;;;;;6.07;3.88;;;2.80;99.90;;;;;;5017245;28;20765;-73
2022/03/18 02:50:05;;;;;;;8.98;4.53;;;2.70;99.90;;;;;;5007821;28;20046;-74
2022/03/18 02:52:31;;;;;;;9.23;3.58;;;2.60;99.90;;;;;;5006501;28;20046;-74
2022/03/18 02:54:56;;;;;;;19.42;4.75;;;2.50;99.90;;;;;;5004607;28;20038;-73
2022/03/18 02:57:22;;;;;;;13.30;3.72;;;2.60;99.90;;;;;;5006278;28;20080;-74
2022/03/18 02:59:47;;;;;;;10.98;3.85;;;2.60;99.90;;;;;;4990789;28;20045;-73
2022/03/18 03:02:14;;;;;;;12.10;5.00;;;2.50;99.90;;;;;;5005798;28;20065;-73
2022/03/18 03:07:59;;;;;;;11.18;4.07;;;2.40;99.90;;;;;;4991059;28;20053;-73
2022/03/18 03:10:12;;;;;;;13.00;4.68;;;2.30;99.90;;;;;;5020846;28;20042;-73
2022/03/18 03:12:48;;;;;;;7.35;4.57;;;2.30;99.90;;;;;;5007335;28;20044;-73
2022/03/18 03:15:14;;;;;;;;;;;2.30;99.90;;;;;;5002976;28;20528;-73
2022/03/18 03:17:39;;;;;;;18.77;4.90;;;2.30;99.90;;;;;;5004125;28;19927;-73
2022/03/18 03:20:07;;;;;;;20.25;5.93;;;2.30;99.90;;;;;;5008558;28;20035;-73
2022/03/18 03:22:33;;;;;;;12.93;4.72;;;2.20;99.90;;;;;;5004909;28;20046;-73
2022/03/18 03:24:59;;;;;;;12.57;4.90;;;2.20;99.90;;;;;;5003169;28;20042;-73
2022/03/18 03:27:29;;;;;;;10.20;4.13;;;2.30;99.90;;;;;;5004183;28;20038;-73
2022/03/18 03:30:00;;;;;;;11.43;4.25;;;2.40;99.90;;;;;;5005153;28;20042;-73
2022/03/18 03:32:27;;;;;;;14.43;5.90;;;2.30;99.90;;;;;;5004591;28;20038;-73
2022/03/18 03:34:57;;;;;;;17.13;5.57;;;2.40;99.90;;;;;;5006814;28;20038;-73
2022/03/18 03:37:24;;;;;;;14.85;5.45;;;2.50;99.90;;;;;;5006444;28;20068;-73
2022/03/18 03:39:50;;;;;;;11.32;5.60;;;2.50;99.90;;;;;;5002607;28;20049;-73
2022/03/18 03:42:17;;;;;;;9.93;4.85;;;2.50;99.90;;;;;;5005471;28;20085;-73
2022/03/18 03:44:43;;;;;;;6.95;3.78;;;2.60;99.90;;;;;;5009449;28;20095;-73
2022/03/18 03:47:09;;;;;;;12.05;4.32;;;2.60;99.90;;;;;;5009640;28;20042;-73
2022/03/18 03:49:34;;;;;;;10.60;3.72;;;2.50;99.90;;;;;;5005750;28;20033;-73
2022/03/18 03:52:00;;;;;;;9.93;4.15;;;2.50;99.90;;;;;;5009325;28;20038;-73
2022/03/18 03:54:27;;;;;;;7.53;4.00;;;2.80;99.90;;;;;;5003815;28;20516;-73
2022/03/18 03:56:54;;;;;;;12.15;4.30;;;2.60;99.90;;;;;;5005924;28;20060;-73
2022/03/18 03:59:22;;;;;;;12.65;5.45;;;2.50;99.90;;;;;;5005579;28;20060;-73
2022/03/18 04:01:47;;;;;;;9.25;4.35;;;2.60;99.90;;;;;;5007695;28;20065;-73
2022/03/18 04:04:13;;;;;;;8.32;3.75;;;2.60;99.90;;;;;;5007298;28;20508;-73
2022/03/18 04:06:39;;;;;;;10.35;4.57;;;2.60;99.90;;;;;;5006321;28;20125;-73
2022/03/18 04:09:05;;;;;;;12.57;6.28;;;2.60;99.90;;;;;;4989473;28;20863;-73
2022/03/18 04:11:31;;;;;;;11.77;5.65;;;2.60;99.90;;;;;;4987407;28;20511;-74
2022/03/18 04:13:57;;;;;;;14.77;5.50;;;2.60;99.90;;;;;;5004249;28;20050;-73
2022/03/18 04:16:22;;;;;;;10.77;4.35;;;2.60;99.90;;;;;;5007602;28;20038;-73
2022/03/18 04:18:48;;;;;;;10.02;4.70;;;2.60;99.90;;;;;;5008422;28;20042;-74
2022/03/18 04:21:14;;;;;;;11.27;4.35;;;2.70;99.90;;;;;;5003154;28;20042;-73
2022/03/18 04:23:41;;;;;;;10.57;4.25;;;2.70;99.90;;;;;;5007005;28;20057;-74
2022/03/18 04:26:06;;;;;;;8.15;3.67;;;2.50;99.90;;;;;;5003979;28;20374;-73
2022/03/18 04:28:33;;;;;;;7.82;3.72;;;2.60;99.90;;;;;;5004095;28;20045;-73
2022/03/18 04:30:58;;;;;;;8.50;4.43;;;2.50;99.90;;;;;;5002049;28;20358;-73
2022/03/18 04:33:24;;;;;;;6.70;3.85;;;2.50;99.90;;;;;;5002759;28;20095;-73
2022/03/18 04:35:51;;;;;;;10.98;4.50;;;2.50;99.90;;;;;;4988788;28;20045;-74
2022/03/18 04:38:17;;;;;;;8.13;4.05;;;2.40;99.90;;;;;;5002701;28;20046;-73
2022/03/18 04:40:43;;;;;;;11.85;4.40;;;2.40;99.90;;;;;;5002799;28;20067;-73
2022/03/18 04:43:08;;;;;;;9.70;4.05;;;2.40;99.90;;;;;;5002756;28;20042;-73
2022/03/18 04:45:35;;;;;;;9.05;3.53;;;2.40;99.90;;;;;;5017312;28;20244;-73
2022/03/18 04:48:00;;;;;;;8.65;4.05;;;2.40;99.90;;;;;;5002121;28;20041;-74
2022/03/18 04:50:27;;;;;;;5.30;3.53;;;2.40;99.90;;;;;;5003830;28;20076;-73
2022/03/18 04:52:53;;;;;;;9.60;4.03;;;2.40;99.90;;;;;;4998832;28;20033;-73
2022/03/18 04:55:19;;;;;;;8.02;4.43;;;2.50;99.90;;;;;;5005796;28;20128;-73
2022/03/18 04:57:45;;;;;;;8.93;4.07;;;2.40;99.90;;;;;;5001681;28;20144;-73
2022/03/18 05:00:12;;;;;;;8.93;4.38;;;2.60;99.90;;;;;;5002709;28;20539;-73
2022/03/18 05:02:38;;;;;;;9.70;5.03;;;2.40;99.90;;;;;;5002627;28;20042;-73
2022/03/18 05:05:11;;;;;;;9.77;4.72;;;2.30;99.90;;;;;;5001375;28;20163;-73
2022/03/18 05:07:39;;;;;;;9.30;3.90;;;2.40;99.90;;;;;;5003391;28;20048;-73
2022/03/18 05:10:06;;;;;;;11.50;5.18;;;2.40;99.90;;;;;;5002885;28;20042;-73
2022/03/18 05:12:32;;;;;;;10.55;4.25;;;2.50;99.90;;;;;;5015759;28;20046;-73
2022/03/18 05:14:58;;;;;;;9.63;5.07;;;2.50;99.90;;;;;;5005676;28;20050;-73
2022/03/18 05:17:23;;;;;;;12.18;5.68;;;2.50;99.90;;;;;;5004922;28;20400;-73
2022/03/18 05:19:49;;;;;;;9.88;4.78;;;2.40;99.90;;;;;;5004146;28;20037;-73
2022/03/18 05:22:16;;;;;;;11.73;4.63;;;2.30;99.90;;;;;;5016490;28;20057;-73
2022/03/18 05:24:42;;;;;;;12.73;4.68;;;2.30;99.90;;;;;;5003652;28;20054;-73
2022/03/18 05:27:08;;;;;;;14.18;5.18;;;2.30;99.90;;;;;;5014634;28;21217;-73
2022/03/18 05:29:34;;;;;;;9.25;5.28;;;2.30;99.90;;;;;;5001076;28;20044;-73
2022/03/18 05:32:01;;;;;;;9.60;4.95;;;2.30;99.90;;;;;;5003338;28;20467;-73
2022/03/18 05:34:28;;;;;;;7.60;4.05;;;2.30;99.90;;;;;;5003128;28;20049;-73
2022/03/18 05:36:54;;;;;;;10.25;5.47;;;2.20;99.90;;;;;;5006500;28;20042;-73
2022/03/18 05:39:20;;;;;;;9.48;5.45;;;2.30;99.90;;;;;;5004031;28;20550;-73
2022/03/18 05:41:45;;;;;;;9.82;4.85;;;2.20;99.90;;;;;;5002459;28;20042;-73
2022/03/18 05:44:12;;;;;;;14.40;5.65;;;2.20;99.90;;;;;;5002822;28;20096;-73
2022/03/18 05:46:38;;;;;;;14.00;5.68;;;2.20;99.90;;;;;;5004336;28;20057;-73
2022/03/18 05:49:04;;;;;;;8.40;4.80;;;2.10;99.90;;;;;;5004591;28;20034;-73
2022/03/18 05:51:31;;;;;;;13.57;5.30;;;2.20;99.90;;;;;;5000489;28;20567;-74
2022/03/18 05:53:56;;;;;;;13.07;5.20;;;2.30;99.90;;;;;;5003818;28;20084;-74
2022/03/18 05:59:08;;;;;;;9.85;5.28;;;2.40;99.90;;;;;;5001513;28;20062;-73
2022/03/18 06:01:40;;;;;;;9.90;4.68;;;2.50;99.90;;;;;;5001799;28;20419;-74
2022/03/18 06:04:10;;;;;;;16.13;5.20;;;2.60;99.90;;;;;;5004065;28;20050;-74
2022/03/18 06:06:39;;;;;;;9.60;4.65;;;2.70;99.90;;;;;;5001562;28;20042;-73
2022/03/18 06:11:51;;;;;;;11.32;5.30;;;2.90;99.90;;;;;;5004841;28;20641;-74
2022/03/18 06:14:24;;;;;;;11.80;5.72;;;3.00;99.90;;;;;;4998950;28;20049;-74
2022/03/18 06:16:55;;;;;;;9.50;5.63;;;3.10;99.90;;;;;;5006654;28;20042;-74
2022/03/18 06:19:21;;;;;;;9.15;4.25;;;3.30;99.90;;;;;;4999675;28;20050;-74
2022/03/18 06:21:48;;;;;;;6.55;3.72;;;3.60;99.90;;;;;;5008264;28;20133;-75
2022/03/18 06:24:14;;;;;;;11.15;4.47;;;4.00;99.90;;;;;;5012636;28;20642;-75
2022/03/18 06:26:41;;;;;;;5.88;3.78;;;4.40;99.90;;;;;;5007170;28;20083;-75
2022/03/18 06:29:07;;;;;;;9.40;4.72;;;4.90;99.90;;;;;;5004352;28;20114;-76
2022/03/18 06:31:34;;;;;;;11.13;5.30;;;5.50;99.90;;;;;;5006565;28;20562;-76
2022/03/18 06:34:00;;;;;;;7.00;3.50;;;6.00;99.90;;;;;;5003637;28;20045;-76
2022/03/18 06:36:26;;;;;;;9.55;4.75;;;6.50;99.90;;;;;;5002738;28;20045;-76
2022/03/18 06:38:52;;;;;;;10.32;3.80;;;7.00;99.90;;;;;;5002135;28;20037;-77
2022/03/18 06:41:19;;;;;;;9.82;4.03;;;7.60;99.90;;;;;;5005979;28;20141;-77
2022/03/18 06:43:46;;;;;;;7.53;3.70;;;8.20;99.90;;;;;;5001124;28;20060;-78
2022/03/18 06:46:12;;;;;;;7.93;3.67;;;8.80;99.90;;;;;;5005777;28;20116;-78
2022/03/18 06:48:37;;;;;;;7.05;3.85;;;9.40;99.90;;;;;;5005419;28;20034;-78
2022/03/18 06:51:03;;;;;;;6.82;3.90;;;9.90;99.90;;;;;;5009839;28;20082;-79
2022/03/18 06:53:29;;;;;;;8.73;3.97;;;10.40;99.90;;;;;;5022717;28;20041;-80
2022/03/18 06:55:54;;;;;;;8.85;4.05;;;10.80;99.90;;;;;;5006351;28;20392;-80
2022/03/18 06:58:20;;;;;;;11.13;4.10;;;11.20;99.90;;;;;;5007086;28;20045;-81
2022/03/18 07:00:47;;;;;;;10.77;4.72;;;11.50;99.90;;;;;;5009980;28;20045;-81
2022/03/18 07:03:13;;;;;;;15.48;5.20;;;11.70;98.90;;;;;;5008814;28;20034;-81
2022/03/18 07:05:39;;;;;;;10.77;4.40;;;11.70;97.80;;;;;;5007963;28;20169;-81
2022/03/18 07:08:05;;;;;;;9.30;4.85;;;11.80;96.70;;;;;;5010543;28;20104;-82
2022/03/18 07:10:31;;;;;;;9.23;5.07;;;11.90;95.30;;;;;;5006856;28;20603;-81
2022/03/18 07:12:56;;;;;;;12.65;5.50;;;12.00;95.10;;;;;;5008101;28;20030;-80
2022/03/18 07:15:22;;;;;;;7.93;4.22;;;12.30;95.00;;;;;;5006246;28;20034;-80
2022/03/18 07:18:02;;;;;;;13.63;5.30;;;12.50;93.50;;;;;;5002578;28;20034;-80
2022/03/18 07:20:36;;;;;;;9.65;5.55;;;12.60;92.40;;;;;;5004042;28;20068;-80
2022/03/18 07:23:04;;;;;;;8.13;5.13;;;12.70;90.70;;;;;;5004537;28;20555;-80
2022/03/18 07:25:30;;;;;;;11.25;5.28;;;12.40;90.90;;;;;;5004329;28;20175;-80
2022/03/18 07:27:57;;;;;;;12.60;6.43;;;12.30;91.00;;;;;;5003764;28;20053;-80
2022/03/18 07:30:23;;;;;;;12.45;5.85;;;12.60;91.10;;;;;;5004621;28;20072;-80
2022/03/18 07:32:49;;;;;;;9.85;4.70;;;12.00;91.50;;;;;;5007102;28;20112;-80
2022/03/18 07:35:14;;;;;;;10.68;5.90;;;12.00;91.40;;;;;;5000233;28;20456;-80
2022/03/18 07:37:41;;;;;;;9.20;4.95;;;11.90;91.50;;;;;;4987433;28;20053;-80
2022/03/18 07:40:11;;;;;;;12.45;6.38;;;12.20;91.90;;;;;;5008617;28;20049;-80
2022/03/18 07:42:54;;;;;;;12.18;6.05;;;12.30;91.60;;;;;;5005294;28;20042;-80
2022/03/18 07:45:26;;;;;;;13.05;6.68;;;12.20;91.10;;;;;;5004253;28;20511;-80
2022/03/18 07:47:53;;;;;;;10.68;5.90;;;12.10;92.10;;;;;;5005898;28;20092;-80
2022/03/18 07:50:21;;;;;;;10.05;6.18;;;12.10;92.70;;;;;;5006523;28;20073;-80
2022/03/18 07:52:51;;;;;;;10.38;6.03;;;12.10;92.80;;;;;;5006208;28;20057;-80
2022/03/18 07:55:23;;;;;;;13.95;6.55;;;12.20;92.50;;;;;;5005562;28;20033;-80
2022/03/18 07:57:49;;;;;;;10.70;5.68;;;12.20;92.60;;;;;;5011219;28;20038;-80
2022/03/18 08:00:16;;;;;;;13.35;6.30;;;12.20;92.90;;;;;;5012630;28;20044;-80
2022/03/18 08:02:43;;;;;;;8.40;5.78;;;12.10;93.10;;;;;;5002172;28;20052;-79
2022/03/18 08:05:10;;;;;;;9.15;6.05;;;12.10;93.10;;;;;;5005742;28;20049;-79
2022/03/18 08:07:36;;;;;;;8.70;6.13;;;11.90;93.50;;;;;;5003846;28;20121;-79
2022/03/18 08:10:04;;;;;;;11.80;7.65;;;11.70;94.30;;;;;;5006114;28;20061;-79
2022/03/18 08:12:31;;;;;;;14.38;7.55;;;11.60;95.50;;;;;;5006606;28;20035;-79
2022/03/18 08:15:03;;;;;;;12.88;6.75;;;11.40;96.80;;;;;;5018783;28;20130;-78
2022/03/18 08:17:30;;;;;;;15.52;7.30;;;11.20;98.80;;;;;;5011079;28;20052;-78
2022/03/18 08:19:56;;;;;;;14.32;6.60;;;11.10;99.90;;;;;;5004691;28;20046;-79
2022/03/18 08:22:22;;;;;;;12.85;6.20;;;11.10;99.90;;;;;;5002789;28;20053;-79
2022/03/18 08:24:49;;;;;;;16.20;7.93;;;11.20;99.90;;;;;;5006178;28;20038;-78
2022/03/18 08:27:15;;;;;;;15.43;7.57;;;11.20;99.90;;;;;;5002653;28;20069;-78
2022/03/18 08:29:41;;;;;;;16.98;7.47;;;11.20;99.90;;;;;;5002600;28;20366;-78
2022/03/18 08:32:11;;;;;;;17.02;8.02;;;11.20;99.90;;;;;;5005652;28;20057;-78
2022/03/18 08:34:37;;;;;;;14.30;7.25;;;11.30;99.90;;;;;;5003512;28;20056;-78
2022/03/18 08:37:05;;;;;;;13.48;7.32;;;11.40;99.90;;;;;;5002917;28;20545;-78
2022/03/18 08:39:38;;;;;;;16.70;7.63;;;11.50;99.90;;;;;;5006188;28;20125;-78
2022/03/18 08:42:04;;;;;;;12.77;8.30;;;11.60;99.90;;;;;;5005765;28;20379;-79
2022/03/18 08:44:30;;;;;;;15.85;7.38;;;11.60;99.90;;;;;;5000928;28;20054;-78
2022/03/18 08:46:57;;;;;;;16.98;7.13;;;11.70;99.90;;;;;;5004474;28;20037;-78
2022/03/18 08:49:24;;;;;;;12.25;7.43;;;11.70;99.90;;;;;;5007689;28;20515;-78
2022/03/18 08:51:50;;;;;;;18.70;9.25;;;11.80;99.90;;;;;;5010859;28;20558;-78
2022/03/18 08:54:16;;;;;;;16.73;6.93;;;11.80;99.90;;;;;;5012980;28;20057;-78
2022/03/18 08:56:42;;;;;;;18.50;7.78;;;11.80;99.90;;;;;;5024681;28;20038;-78
2022/03/18 08:59:08;;;;;;;13.70;7.28;;;11.90;99.90;;;;;;5014116;28;20076;-78
2022/03/18 09:01:34;;;;;;;15.52;7.68;;;12.00;99.90;;;;;;5004725;28;20396;-78
2022/03/18 09:04:00;;;;;;;17.83;7.78;;;12.00;99.90;;;;;;5004057;28;20046;-78
2022/03/18 09:06:26;;;;;;;17.58;7.32;;;12.10;99.90;;;;;;5007487;28;20755;-78
2022/03/18 09:08:52;;;;;;;15.77;6.78;;;12.30;99.90;;;;;;5005600;28;20045;-79
2022/03/18 09:11:18;;;;;;;15.90;6.93;;;12.30;99.90;;;;;;5001222;28;20477;-79
2022/03/18 09:13:44;;;;;;;18.83;6.85;;;12.30;99.90;;;;;;5000742;28;20046;-79
2022/03/18 09:16:11;;;;;;;18.52;7.32;;;12.00;99.90;;;;;;5003035;28;20041;-79
2022/03/18 09:18:37;;;;;;;15.48;6.95;;;12.10;99.90;;;;;;5014345;28;20045;-79
2022/03/18 09:21:04;;;;;;;15.48;7.93;;;12.00;99.90;;;;;;5001865;28;20036;-79
2022/03/18 09:23:30;;;;;;;18.10;7.90;;;12.20;99.90;;;;;;5001617;28;20536;-79
2022/03/18 09:25:57;;;;;;;15.80;7.57;;;12.20;99.90;;;;;;5002175;28;20041;-79
2022/03/18 09:28:23;;;;;;;19.40;8.45;;;12.30;99.90;;;;;;4987000;28;20038;-79
2022/03/18 09:30:49;;;;;;;17.48;7.80;;;12.20;99.90;;;;;;5000945;28;20129;-79
2022/03/18 09:33:15;;;;;;;17.95;7.97;;;12.30;99.90;;;;;;5002760;28;20038;-79
2022/03/18 09:35:40;;;;;;;17.70;7.35;;;12.00;99.90;;;;;;5000301;28;20044;-79
2022/03/18 09:38:06;;;;;;;14.65;7.50;;;12.00;99.90;;;;;;4998827;28;20123;-79
2022/03/18 09:40:32;;;;;;;14.60;7.53;;;12.00;99.90;;;;;;5004990;28;20169;-79
2022/03/18 09:43:05;;;;;;;17.20;7.53;;;12.00;99.90;;;;;;5002322;28;20103;-79
2022/03/18 09:45:34;;;;;;;20.15;7.90;;;12.00;99.90;;;;;;5004566;28;20045;-79
2022/03/18 09:48:02;;;;;;;17.80;7.70;;;12.20;99.90;;;;;;5001227;28;20381;-79
2022/03/18 09:50:29;;;;;;;15.82;7.60;;;12.40;99.90;;;;;;5017171;28;20050;-79
2022/03/18 09:52:55;;;;;;;15.50;7.63;;;12.50;99.90;;;;;;5015343;28;20030;-79
2022/03/18 09:55:21;;;;;;;13.55;7.22;;;12.70;99.90;;;;;;4997949;28;20147;-79
2022/03/18 09:57:46;;;;;;;26.75;8.70;;;12.80;99.90;;;;;;5001534;28;20042;-79
2022/03/18 10:00:13;;;;;;;16.85;7.80;;;12.60;99.90;;;;;;5002982;28;20046;-79
2022/03/18 10:02:40;;;;;;;18.05;7.78;;;12.70;99.90;;;;;;5002501;28;20038;-79
2022/03/18 10:05:13;;;;;;;16.50;6.80;;;12.80;99.90;;;;;;5001055;28;20033;-79
2022/03/18 10:07:40;;;;;;;18.55;6.80;;;13.00;99.90;;;;;;5003159;28;20121;-80
2022/03/18 10:10:15;;;;;;;15.02;7.03;;;12.90;99.90;;;;;;5004710;28;20034;-79
2022/03/18 10:12:42;;;;;;;16.77;6.95;;;13.00;99.90;;;;;;5003946;28;20053;-79
2022/03/18 10:15:15;;;;;;;16.70;7.38;;;13.10;99.90;;;;;;5000928;28;20091;-80
2022/03/18 10:17:48;;;;;;;18.13;7.15;;;13.20;99.90;;;;;;5002038;28;20444;-80
2022/03/18 10:20:22;;;;;;;13.90;7.13;;;13.20;99.90;;;;;;5004311;28;20556;-78
2022/03/18 10:22:48;;;;;;;13.30;5.68;;;13.20;99.90;;;;;;5015600;28;20489;-79
2022/03/18 10:25:53;;;;;;;18.70;6.57;;;13.30;99.90;;;;;;5002268;28;20046;-79
2022/03/18 10:28:35;;;;;;;12.13;5.93;;;13.40;99.90;;;;;;4999161;28;20060;-80
2022/03/18 10:31:15;;;;;;;10.60;5.90;;;13.60;99.90;;;;;;4998097;28;20129;-80
2022/03/18 10:37:30;;;;;;;13.27;7.10;;;13.80;99.90;;;;;;4999594;28;20489;-81
2022/03/18 10:39:41;;;;;;;14.65;7.28;;;13.80;99.90;;;;;;4995741;28;20050;-81
2022/03/18 10:42:12;;;;;;;11.27;5.85;;;13.80;99.90;;;;;;5000179;28;20058;-81
2022/03/18 10:44:47;;;;;;;13.45;7.07;;;14.00;99.90;;;;;;5000785;28;20069;-81
2022/03/18 10:47:27;;;;;;;15.13;6.43;;;14.00;99.90;;;;;;5007119;28;20055;-81
2022/03/18 10:50:12;;;;;;;13.13;6.47;;;14.00;99.90;;;;;;5017364;28;20042;-81
2022/03/18 10:52:38;;;;;;;14.73;6.55;;;14.20;99.90;;;;;;5003798;28;20567;-81
2022/03/18 10:55:19;;;;;;;18.92;6.70;;;14.40;99.90;;;;;;5002747;28;20556;-81
2022/03/18 10:57:57;;;;;;;11.60;4.55;;;14.30;99.90;;;;;;5006185;28;20053;-79
2022/03/18 11:00:25;;;;;;;14.25;5.65;;;14.30;99.90;;;;;;5003894;28;20056;-79
2022/03/18 11:02:52;;;;;;;12.77;5.32;;;14.30;99.90;;;;;;5004814;28;20489;-80
2022/03/18 11:05:21;;;;;;;8.77;4.43;;;14.10;99.90;;;;;;4999526;28;20057;-79
2022/03/18 11:07:50;;;;;;;12.30;5.38;;;14.40;99.90;;;;;;5005600;28;20041;-79
2022/03/18 11:13:04;;;;;;;13.35;5.18;;;14.90;99.90;;;;;;5014415;28;20046;-79
2022/03/18 11:15:31;;;;;;;13.23;5.80;;;15.20;99.90;;;;;;5009359;28;20056;-79
2022/03/18 11:17:58;;;;;;;18.45;6.72;;;15.00;97.80;;;;;;5005171;28;20054;-80
2022/03/18 11:20:30;;;;;;;16.48;5.63;;;15.00;97.70;;;;;;5011690;28;20074;-79
2022/03/18 11:22:56;;;;;;;14.57;5.50;;;15.00;99.20;;;;;;5014565;28;20041;-80
2022/03/18 11:25:23;;;;;;;12.45;4.93;;;14.80;97.90;;;;;;5014714;28;20080;-79
2022/03/18 11:27:51;;;;;;;13.20;5.35;;;14.90;98.10;;;;;;5009134;28;20049;-79
2022/03/18 11:30:35;;;;;;;12.35;4.47;;;14.80;96.00;;;;;;5008234;28;20069;-79
2022/03/18 11:33:09;;;;;;;15.60;5.30;;;14.90;96.50;;;;;;5005972;28;20053;-79
2022/03/18 11:35:50;;;;;;;8.82;4.93;;;14.80;96.60;;;;;;5005980;28;20092;-79
2022/03/18 11:38:47;;;;;;;11.63;4.80;;;14.90;96.70;;;;;;5019523;28;20045;-79
2022/03/18 11:41:14;;;;;;;12.23;5.13;;;15.00;97.80;;;;;;5003045;28;20053;-79
2022/03/18 11:43:42;;;;;;;9.68;4.00;;;15.30;97.50;;;;;;5002091;28;20048;-80
2022/03/18 11:46:16;;;;;;;10.57;3.20;;;15.40;96.50;;;;;;5004751;28;20085;-80
2022/03/18 11:48:49;;;;;;;8.15;2.90;;;15.60;95.50;;;;;;5006160;28;20120;-80
2022/03/18 11:51:33;;;;;;;15.38;3.55;;;15.30;92.30;;;;;;5005507;28;20046;-80
2022/03/18 11:54:12;;;;;;;10.60;3.35;;;15.10;90.90;;;;;;5006360;28;20042;-80
2022/03/18 11:56:52;;;;;;;12.13;3.33;;;14.80;91.50;;;;;;5007266;28;20060;-80
2022/03/18 11:59:38;;;;;;;10.35;3.80;;;14.70;92.80;;;;;;4991920;28;20050;-79
2022/03/18 12:02:09;;;;;;;6.63;2.97;;;14.70;94.30;;;;;;5005761;28;20053;-79
2022/03/18 12:04:48;;;;;;;10.43;3.17;;;14.90;92.60;;;;;;5007018;28;20129;-80
2022/03/18 12:07:29;;;;;;;12.20;3.80;;;15.30;95.10;;;;;;5002471;28;20068;-80
2022/03/18 12:10:06;;;;;;;10.68;3.28;;;15.40;90.00;;;;;;5000798;28;20049;-80
2022/03/18 12:12:40;;;;;;;10.98;4.47;;;15.40;90.20;;;;;;5000817;28;20045;-80
2022/03/18 12:15:16;;;;;;;7.63;2.97;;;15.50;91.80;;;;;;5004803;28;20038;-83
2022/03/18 12:17:56;;;;;;;8.77;3.83;;;15.50;91.40;;;;;;5003894;28;20400;-82
2022/03/18 12:20:23;;;;;;;9.45;3.35;;;15.40;88.90;;;;;;5009278;28;20052;-82
2022/03/18 12:22:52;;;;;;;10.00;3.15;;;15.50;91.70;;;;;;5002768;28;20041;-81
2022/03/18 12:25:18;;;;;;;17.00;3.28;;;15.50;90.40;;;;;;5004930;28;20516;-81
2022/03/18 12:27:45;;;;;;;13.40;3.63;;;15.60;90.70;;;;;;5004460;28;20049;-81
2022/03/18 12:30:19;;;;;;;16.55;5.05;;;15.60;89.30;;;;;;5003893;28;20050;-81
2022/03/18 12:32:50;;;;;;;7.60;1.70;;;15.80;90.00;;;;;;5002561;28;20050;-80
2022/03/18 12:35:17;;;;;;;7.47;2.47;;;15.80;81.30;;;;;;5006826;28;20064;-80
2022/03/18 12:37:46;;;;;;;9.02;2.50;;;15.40;81.80;;;;;;5005142;28;20065;-80
2022/03/18 12:40:14;;;;;;;9.98;2.72;;;15.40;82.80;;;;;;5005299;28;20081;-80
2022/03/18 12:42:56;;;;;;;8.85;2.67;;;15.20;85.20;;;;;;5007469;28;20092;-80
2022/03/18 12:45:43;;;;;;;9.82;3.40;;;15.10;85.90;;;;;;5006048;28;20531;-80
2022/03/18 12:48:14;;;;;;;7.28;2.22;;;15.10;85.90;;;;;;5006718;28;20034;-80
2022/03/18 12:50:48;;;;;;;12.40;3.55;;;15.40;86.30;;;;;;5006467;28;20050;-80
2022/03/18 12:53:20;;;;;;;9.32;2.80;;;15.30;85.50;;;;;;5006344;28;20049;-80
2022/03/18 12:55:50;;;;;;;9.45;3.35;;;15.40;86.50;;;;;;5006420;28;20048;-80
2022/03/18 12:58:16;;;;;;;9.85;3.40;;;15.50;83.70;;;;;;5004724;28;20080;-80
2022/03/18 13:00:55;;;;;;;10.25;3.03;;;15.30;82.90;;;;;;5006199;28;20048;-80
2022/03/18 13:03:26;;;;;;;6.88;2.25;;;15.30;86.10;;;;;;5004884;28;20480;-80
2022/03/18 13:05:52;;;;;;;11.95;2.80;;;15.30;85.80;;;;;;5003098;28;20026;-79
2022/03/18 13:08:20;;;;;;;7.50;2.47;;;15.30;82.90;;;;;;5004188;28;20064;-80
2022/03/18 13:11:00;;;;;;;7.82;2.45;;;15.30;84.60;;;;;;5004304;28;20041;-80